Time;durP1;ratioP1;P1;durP2;ratioP2;P2;SDS_P1;SDS_P2;PMS_P1;PMS_P2;Temp;Humidity;BMP_temperature;BMP_pressure;BME280_temperature;BME280_humidity;BME280_pressure;Samples;Min_cycle;Max_cycle;Signal;HPM_P1;HPM_P2
2023/03/27 00:00:19;;;;;;;0.73;0.20;;;;;;;;;;5046809;28;20094;-63
2023/03/27 00:02:48;;;;;;;0.57;0.30;;;;;;;;;;5046064;28;20045;-63
2023/03/27 00:05:15;;;;;;;0.95;0.10;;;;;;;;;;5045213;28;20049;-64
2023/03/27 00:07:41;;;;;;;2.33;0.52;;;;;;;;;;5045446;28;20274;-63
2023/03/27 00:10:08;;;;;;;0.70;0.40;;;;;;;;;;5048982;28;20037;-63
2023/03/27 00:12:34;;;;;;;1.63;0.28;;;;;;;;;;5052606;28;20088;-63
2023/03/27 00:15:00;;;;;;;0.20;0.20;;;;;;;;;;5050073;28;20138;-63
2023/03/27 00:17:26;;;;;;;0.35;0.10;;;;;;;;;;5049422;28;20096;-63
2023/03/27 00:19:52;;;;;;;0.65;0.20;;;;;;;;;;5051249;28;20037;-63
2023/03/27 00:22:19;;;;;;;2.83;0.30;;;;;;;;;;5051146;28;20055;-63
2023/03/27 00:24:45;;;;;;;0.32;0.22;;;;;;;;;;5049684;28;20492;-63
2023/03/27 00:27:11;;;;;;;1.55;0.40;;;;;;;;;;5050022;28;20053;-63
2023/03/27 00:29:38;;;;;;;1.55;0.38;;;;;;;;;;5052890;28;20055;-63
2023/03/27 00:32:04;;;;;;;0.77;0.20;;;;;;;;;;5048932;28;20098;-63
2023/03/27 00:34:30;;;;;;;0.95;0.28;;;;;;;;;;5049310;28;20052;-63
2023/03/27 00:36:57;;;;;;;1.77;0.30;;;;;;;;;;5049032;28;20175;-63
2023/03/27 00:39:23;;;;;;;3.95;0.40;;;;;;;;;;5048593;28;20037;-63
2023/03/27 00:41:49;;;;;;;1.02;0.20;;;;;;;;;;5051258;28;20041;-63
2023/03/27 00:44:33;;;;;;;2.53;0.35;;;;;;;;;;5050505;28;20041;-63
2023/03/27 00:47:01;;;;;;;4.30;0.60;;;;;;;;;;5049809;28;20067;-63
2023/03/27 00:49:30;;;;;;;2.33;0.50;;;;;;;;;;5051116;28;20045;-63
2023/03/27 00:51:57;;;;;;;2.33;0.45;;;;;;;;;;5049926;28;20090;-63
2023/03/27 00:54:28;;;;;;;2.55;0.40;;;;;;;;;;5048992;28;20044;-63
2023/03/27 00:56:56;;;;;;;0.93;0.30;;;;;;;;;;5048991;28;20123;-63
2023/03/27 00:59:24;;;;;;;3.00;0.47;;;;;;;;;;5049153;28;20770;-63
2023/03/27 01:01:50;;;;;;;1.98;0.65;;;;;;;;;;5051258;28;20040;-63
2023/03/27 01:04:20;;;;;;;1.58;0.40;;;;;;;;;;5050072;28;20586;-63
2023/03/27 01:06:47;;;;;;;1.90;0.40;;;;;;;;;;5048880;28;20063;-63
2023/03/27 01:09:13;;;;;;;0.57;0.25;;;;;;;;;;5049561;28;20075;-63
2023/03/27 01:11:39;;;;;;;1.90;0.40;;;;;;;;;;5049165;28;20052;-63
2023/03/27 01:14:11;;;;;;;1.85;0.85;;;;;;;;;;5049144;28;20045;-63
2023/03/27 01:16:37;;;;;;;0.70;0.40;;;;;;;;;;5046765;28;20056;-63
2023/03/27 01:19:20;;;;;;;1.70;0.30;;;;;;;;;;5049789;28;20044;-63
2023/03/27 01:21:46;;;;;;;3.22;0.50;;;;;;;;;;5048908;28;20099;-63
2023/03/27 01:24:31;;;;;;;1.38;0.45;;;;;;;;;;5050027;28;20048;-63
2023/03/27 01:27:17;;;;;;;0.63;0.50;;;;;;;;;;5049558;28;20033;-63
2023/03/27 01:29:52;;;;;;;0.65;0.60;;;;;;;;;;5048605;28;20076;-63
2023/03/27 01:32:30;;;;;;;1.15;0.30;;;;;;;;;;5049467;28;20048;-63
2023/03/27 01:34:59;;;;;;;0.82;0.32;;;;;;;;;;5048792;28;20053;-63
2023/03/27 01:37:27;;;;;;;2.28;0.43;;;;;;;;;;5048892;28;20044;-63
2023/03/27 01:39:53;;;;;;;2.35;0.73;;;;;;;;;;5049181;28;20049;-63
2023/03/27 01:42:26;;;;;;;2.35;0.40;;;;;;;;;;5050534;28;20115;-63
2023/03/27 01:44:57;;;;;;;1.42;0.40;;;;;;;;;;5048630;28;20055;-63
2023/03/27 01:47:41;;;;;;;2.17;0.40;;;;;;;;;;5039269;28;20052;-63
2023/03/27 01:50:18;;;;;;;1.50;0.45;;;;;;;;;;5043968;28;20044;-63
2023/03/27 01:52:48;;;;;;;1.52;0.22;;;;;;;;;;5044839;28;20123;-63
2023/03/27 01:55:18;;;;;;;1.40;0.40;;;;;;;;;;5042707;28;20040;-63
2023/03/27 01:58:06;;;;;;;2.05;0.30;;;;;;;;;;5043329;28;20093;-63
2023/03/27 02:00:35;;;;;;;1.95;0.30;;;;;;;;;;5043009;28;20039;-63
2023/03/27 02:03:07;;;;;;;0.63;0.30;;;;;;;;;;5044896;28;20094;-63
2023/03/27 02:05:36;;;;;;;1.67;0.37;;;;;;;;;;5045356;28;20053;-63
2023/03/27 02:08:14;;;;;;;1.85;0.82;;;;;;;;;;5045031;28;20064;-63
2023/03/27 02:10:42;;;;;;;1.35;0.50;;;;;;;;;;5045591;28;20044;-63
2023/03/27 02:13:12;;;;;;;1.40;0.50;;;;;;;;;;5043666;28;20558;-63
2023/03/27 02:15:40;;;;;;;3.83;0.82;;;;;;;;;;5044180;28;20131;-63
2023/03/27 02:18:09;;;;;;;2.65;0.43;;;;;;;;;;5041764;28;20164;-63
2023/03/27 02:20:36;;;;;;;1.83;0.80;;;;;;;;;;5046919;28;20045;-63
2023/03/27 02:23:03;;;;;;;2.30;0.52;;;;;;;;;;5049752;28;20044;-63
2023/03/27 02:25:37;;;;;;;2.65;1.05;;;;;;;;;;5048252;28;20075;-63
2023/03/27 02:28:06;;;;;;;1.60;0.40;;;;;;;;;;5051615;28;20155;-63
2023/03/27 02:30:35;;;;;;;2.22;0.80;;;;;;;;;;5050817;28;20068;-63
2023/03/27 02:33:07;;;;;;;1.75;0.80;;;;;;;;;;5048988;28;20037;-63
2023/03/27 02:35:39;;;;;;;1.05;0.60;;;;;;;;;;5048849;28;20051;-63
2023/03/27 02:38:12;;;;;;;4.07;0.82;;;;;;;;;;5047042;28;20052;-63
2023/03/27 02:40:38;;;;;;;;;;;;;;;;;;5048567;28;20064;-63
2023/03/27 02:43:07;;;;;;;0.93;0.43;;;;;;;;;;5047581;28;20646;-63
2023/03/27 02:45:45;;;;;;;1.13;0.45;;;;;;;;;;5047421;28;20438;-63
2023/03/27 02:48:19;;;;;;;0.82;0.22;;;;;;;;;;5046975;28;20454;-63
2023/03/27 02:50:54;;;;;;;2.53;0.50;;;;;;;;;;5046620;28;20047;-63
2023/03/27 02:53:22;;;;;;;1.75;0.20;;;;;;;;;;5046880;28;20319;-63
2023/03/27 02:55:53;;;;;;;1.48;0.73;;;;;;;;;;5048252;28;20044;-63
2023/03/27 02:58:25;;;;;;;1.17;0.40;;;;;;;;;;5046723;28;20067;-63
2023/03/27 03:00:52;;;;;;;1.00;0.55;;;;;;;;;;5048724;28;20040;-63
2023/03/27 03:03:26;;;;;;;2.35;0.73;;;;;;;;;;5044709;28;20500;-63
2023/03/27 03:05:56;;;;;;;1.58;0.60;;;;;;;;;;5046874;28;20059;-63
2023/03/27 03:08:23;;;;;;;4.25;0.50;;;;;;;;;;5047582;28;20126;-63
2023/03/27 03:10:49;;;;;;;1.92;0.50;;;;;;;;;;5049799;28;20040;-63
2023/03/27 03:13:15;;;;;;;1.52;0.40;;;;;;;;;;5045725;28;20041;-64
2023/03/27 03:15:42;;;;;;;1.45;0.40;;;;;;;;;;5045654;28;20472;-63
2023/03/27 03:18:08;;;;;;;1.67;0.68;;;;;;;;;;5045901;28;20051;-63
2023/03/27 03:20:34;;;;;;;3.95;0.70;;;;;;;;;;5046981;28;20434;-63
2023/03/27 03:23:01;;;;;;;2.85;0.65;;;;;;;;;;5049661;28;20816;-64
2023/03/27 03:25:29;;;;;;;1.20;0.68;;;;;;;;;;5048776;28;20041;-63
2023/03/27 03:27:56;;;;;;;2.33;1.05;;;;;;;;;;5046019;28;20052;-63
2023/03/27 03:30:26;;;;;;;1.98;0.47;;;;;;;;;;5046741;28;20051;-63
2023/03/27 03:32:53;;;;;;;0.93;0.60;;;;;;;;;;5047870;28;20132;-63
2023/03/27 03:35:20;;;;;;;3.55;0.43;;;;;;;;;;5049555;28;20429;-63
2023/03/27 03:37:49;;;;;;;1.35;0.60;;;;;;;;;;5047148;28;20049;-63
2023/03/27 03:40:16;;;;;;;0.77;0.30;;;;;;;;;;5046860;28;20479;-63
2023/03/27 03:42:46;;;;;;;0.88;0.38;;;;;;;;;;5048862;28;20466;-63
2023/03/27 03:45:12;;;;;;;1.27;0.50;;;;;;;;;;5050126;28;20052;-63
2023/03/27 03:47:38;;;;;;;1.17;0.30;;;;;;;;;;5048571;28;20849;-63
2023/03/27 03:50:05;;;;;;;1.35;0.38;;;;;;;;;;5052181;28;20179;-63
2023/03/27 03:52:31;;;;;;;2.63;0.68;;;;;;;;;;5051862;28;20058;-63
2023/03/27 03:54:57;;;;;;;4.30;0.80;;;;;;;;;;5050487;28;20045;-63
2023/03/27 03:57:23;;;;;;;2.60;1.00;;;;;;;;;;5050658;28;20846;-63
2023/03/27 03:59:49;;;;;;;2.22;0.75;;;;;;;;;;5051949;28;20037;-63
2023/03/27 04:02:27;;;;;;;1.88;0.90;;;;;;;;;;5050600;28;20040;-63
2023/03/27 04:04:54;;;;;;;2.33;0.90;;;;;;;;;;5051182;28;20072;-63
2023/03/27 04:07:22;;;;;;;1.73;0.88;;;;;;;;;;5052564;28;20057;-63
2023/03/27 04:09:49;;;;;;;3.20;0.95;;;;;;;;;;5049539;28;20053;-63
2023/03/27 04:12:15;;;;;;;3.38;1.10;;;;;;;;;;5035846;28;20051;-63
2023/03/27 04:14:41;;;;;;;4.28;0.70;;;;;;;;;;5044518;28;20048;-63
2023/03/27 04:17:08;;;;;;;1.98;0.60;;;;;;;;;;5046780;28;20048;-63
2023/03/27 04:19:34;;;;;;;1.88;0.80;;;;;;;;;;5044115;28;20052;-63
2023/03/27 04:22:01;;;;;;;2.20;0.80;;;;;;;;;;5049285;28;20051;-63
2023/03/27 04:24:29;;;;;;;2.40;0.52;;;;;;;;;;5043653;28;20046;-63
2023/03/27 04:26:57;;;;;;;1.88;0.50;;;;;;;;;;5047588;28;20685;-63
2023/03/27 04:29:23;;;;;;;1.23;0.38;;;;;;;;;;5046918;28;20641;-63
2023/03/27 04:31:50;;;;;;;3.10;1.20;;;;;;;;;;5047503;28;20043;-63
2023/03/27 04:34:19;;;;;;;2.92;0.52;;;;;;;;;;5044960;28;20053;-63
2023/03/27 04:36:46;;;;;;;1.52;0.43;;;;;;;;;;5047563;28;20048;-63
2023/03/27 04:39:15;;;;;;;2.22;0.30;;;;;;;;;;5043633;28;20522;-63
2023/03/27 04:41:44;;;;;;;3.20;0.73;;;;;;;;;;5045713;28;20057;-63
2023/03/27 04:44:10;;;;;;;1.90;0.40;;;;;;;;;;5050217;28;20914;-63
2023/03/27 04:46:36;;;;;;;2.20;0.50;;;;;;;;;;5049620;28;20797;-63
2023/03/27 04:49:02;;;;;;;1.85;0.40;;;;;;;;;;5049072;28;20037;-63
2023/03/27 04:51:31;;;;;;;3.75;0.22;;;;;;;;;;5047758;28;20491;-63
2023/03/27 04:53:57;;;;;;;1.05;0.17;;;;;;;;;;5050735;28;20526;-63
2023/03/27 04:56:23;;;;;;;1.50;0.20;;;;;;;;;;5053339;28;20044;-63
2023/03/27 04:58:49;;;;;;;0.75;0.20;;;;;;;;;;5052261;28;20167;-63
2023/03/27 05:01:16;;;;;;;3.22;1.02;;;;;;;;;;5050096;28;20044;-63
2023/03/27 05:03:42;;;;;;;0.30;0.10;;;;;;;;;;5050416;28;20041;-63
2023/03/27 05:06:08;;;;;;;1.13;0.20;;;;;;;;;;5048544;28;20060;-63
2023/03/27 05:08:35;;;;;;;0.70;0.20;;;;;;;;;;5042019;28;20053;-63
2023/03/27 05:11:01;;;;;;;1.25;0.30;;;;;;;;;;5044874;28;20057;-63
2023/03/27 05:13:27;;;;;;;0.95;0.28;;;;;;;;;;5048966;28;20053;-63
2023/03/27 05:15:54;;;;;;;0.57;0.17;;;;;;;;;;5043745;28;20071;-63
2023/03/27 05:18:20;;;;;;;1.50;0.28;;;;;;;;;;5045409;28;20135;-63
2023/03/27 05:20:48;;;;;;;0.60;0.28;;;;;;;;;;5041866;28;20173;-63
2023/03/27 05:23:15;;;;;;;0.60;0.20;;;;;;;;;;5043949;28;20637;-63
2023/03/27 05:25:41;;;;;;;1.02;0.35;;;;;;;;;;5046710;28;20065;-63
2023/03/27 05:28:08;;;;;;;0.40;0.20;;;;;;;;;;5041656;28;20098;-63
2023/03/27 05:30:34;;;;;;;2.08;0.32;;;;;;;;;;5043513;28;20044;-63
2023/03/27 05:33:00;;;;;;;4.60;0.30;;;;;;;;;;5048074;28;20403;-63
2023/03/27 05:35:27;;;;;;;2.45;0.47;;;;;;;;;;5043732;28;20045;-63
2023/03/27 05:37:54;;;;;;;1.90;0.40;;;;;;;;;;5046703;28;20052;-63
2023/03/27 05:40:21;;;;;;;2.97;0.65;;;;;;;;;;5040510;28;20157;-63
2023/03/27 05:42:48;;;;;;;1.20;0.40;;;;;;;;;;5043516;28;20072;-63
2023/03/27 05:45:14;;;;;;;1.85;0.30;;;;;;;;;;5044866;28;20041;-63
2023/03/27 05:47:45;;;;;;;1.55;0.40;;;;;;;;;;5041691;28;20153;-63
2023/03/27 05:50:11;;;;;;;2.63;0.32;;;;;;;;;;5044062;28;20044;-63
2023/03/27 05:52:37;;;;;;;1.27;0.30;;;;;;;;;;5043739;28;20041;-63
2023/03/27 05:55:05;;;;;;;0.85;0.25;;;;;;;;;;5045796;28;20119;-63
2023/03/27 05:57:31;;;;;;;1.55;0.30;;;;;;;;;;5044572;28;20056;-63
2023/03/27 05:59:59;;;;;;;0.47;0.10;;;;;;;;;;5044789;28;20101;-63
2023/03/27 06:02:25;;;;;;;1.88;0.32;;;;;;;;;;5041916;28;20094;-63
2023/03/27 06:04:51;;;;;;;0.50;0.38;;;;;;;;;;5044894;28;20061;-63
2023/03/27 06:07:17;;;;;;;0.65;0.22;;;;;;;;;;5042969;28;20057;-63
2023/03/27 06:09:44;;;;;;;0.75;0.30;;;;;;;;;;5048079;28;20053;-63
2023/03/27 06:12:10;;;;;;;1.23;0.28;;;;;;;;;;5049782;28;20053;-63
2023/03/27 06:14:36;;;;;;;0.80;0.20;;;;;;;;;;5046055;28;20049;-63
2023/03/27 06:17:02;;;;;;;0.43;0.13;;;;;;;;;;5041297;28;20063;-63
2023/03/27 06:19:28;;;;;;;1.08;0.30;;;;;;;;;;5041642;28;20091;-63
2023/03/27 06:21:54;;;;;;;0.85;0.30;;;;;;;;;;5045064;28;20098;-63
2023/03/27 06:24:20;;;;;;;1.17;0.45;;;;;;;;;;5046724;28;20052;-63
2023/03/27 06:26:46;;;;;;;0.15;0.10;;;;;;;;;;5048716;28;20110;-63
2023/03/27 06:29:12;;;;;;;1.52;0.30;;;;;;;;;;5041266;28;20049;-63
2023/03/27 06:31:38;;;;;;;0.52;0.20;;;;;;;;;;5038391;28;20125;-63
2023/03/27 06:34:04;;;;;;;2.63;0.40;;;;;;;;;;5044849;28;20045;-63
2023/03/27 06:36:31;;;;;;;0.55;0.32;;;;;;;;;;5048689;28;20045;-63
2023/03/27 06:38:57;;;;;;;1.67;0.98;;;;;;;;;;5052005;28;20055;-63
2023/03/27 06:41:23;;;;;;;1.15;0.45;;;;;;;;;;5054013;28;20041;-63
2023/03/27 06:43:49;;;;;;;2.83;0.63;;;;;;;;;;5054849;28;20098;-63
2023/03/27 06:46:16;;;;;;;3.10;0.63;;;;;;;;;;5050757;28;20044;-63
2023/03/27 06:48:42;;;;;;;3.72;0.52;;;;;;;;;;5051689;28;20047;-63
2023/03/27 06:51:08;;;;;;;3.40;0.52;;;;;;;;;;5052547;28;20045;-63
2023/03/27 06:53:35;;;;;;;4.03;0.82;;;;;;;;;;5052027;28;20043;-63
2023/03/27 06:56:01;;;;;;;1.65;0.65;;;;;;;;;;5052044;28;20106;-63
2023/03/27 06:58:27;;;;;;;3.45;0.57;;;;;;;;;;5052473;28;20079;-63
2023/03/27 07:00:54;;;;;;;3.33;0.70;;;;;;;;;;5044629;28;20466;-64
2023/03/27 07:03:21;;;;;;;4.30;1.05;;;;;;;;;;5046342;28;20135;-61
2023/03/27 07:05:48;;;;;;;4.25;1.08;;;;;;;;;;5045490;28;21085;-62
2023/03/27 07:08:15;;;;;;;3.95;0.82;;;;;;;;;;5055556;28;20423;-60
2023/03/27 07:10:41;;;;;;;2.90;1.13;;;;;;;;;;5049863;28;20076;-63
2023/03/27 07:13:07;;;;;;;4.00;0.88;;;;;;;;;;5053387;28;20049;-62
2023/03/27 07:15:34;;;;;;;2.55;0.65;;;;;;;;;;5053774;28;20037;-64
2023/03/27 07:18:01;;;;;;;4.38;1.13;;;;;;;;;;5051114;28;20442;-65
2023/03/27 07:20:28;;;;;;;3.90;1.50;;;;;;;;;;5050675;28;20041;-65
2023/03/27 07:22:56;;;;;;;3.67;0.82;;;;;;;;;;5050211;28;20318;-65
2023/03/27 07:25:22;;;;;;;3.88;0.88;;;;;;;;;;5050546;28;20104;-64
2023/03/27 07:27:48;;;;;;;1.90;0.52;;;;;;;;;;5050210;28;20098;-65
2023/03/27 07:30:14;;;;;;;4.63;1.20;;;;;;;;;;5040525;28;20415;-65
2023/03/27 07:32:44;;;;;;;1.65;0.32;;;;;;;;;;5040507;28;20045;-65
2023/03/27 07:35:11;;;;;;;8.02;0.82;;;;;;;;;;5047476;28;20055;-65
2023/03/27 07:37:37;;;;;;;2.25;0.30;;;;;;;;;;5044672;28;20140;-64
2023/03/27 07:40:07;;;;;;;0.90;0.28;;;;;;;;;;5041746;28;20808;-64
2023/03/27 07:42:34;;;;;;;1.27;0.20;;;;;;;;;;5042152;28;20033;-64
2023/03/27 07:45:01;;;;;;;3.47;0.40;;;;;;;;;;5035658;28;20056;-64
2023/03/27 07:47:27;;;;;;;1.27;0.70;;;;;;;;;;5043861;28;20567;-64
2023/03/27 07:49:53;;;;;;;2.35;0.32;;;;;;;;;;5053878;28;20037;-64
2023/03/27 07:52:20;;;;;;;1.65;0.20;;;;;;;;;;5044873;28;20507;-64
2023/03/27 07:54:47;;;;;;;1.05;0.30;;;;;;;;;;5045023;28;20048;-63
2023/03/27 07:57:16;;;;;;;1.90;0.35;;;;;;;;;;5041774;28;20510;-64
2023/03/27 07:59:44;;;;;;;1.48;0.38;;;;;;;;;;5042974;28;20052;-64
2023/03/27 08:02:10;;;;;;;2.47;1.17;;;;;;;;;;5059205;28;20050;-63
2023/03/27 08:04:36;;;;;;;3.50;0.47;;;;;;;;;;5061242;28;20046;-64
2023/03/27 08:07:03;;;;;;;1.65;0.55;;;;;;;;;;5056785;28;20056;-63
2023/03/27 08:09:29;;;;;;;1.90;0.40;;;;;;;;;;5055711;28;20771;-63
2023/03/27 08:11:55;;;;;;;2.40;0.52;;;;;;;;;;5061947;28;20040;-63
2023/03/27 08:14:21;;;;;;;1.77;0.85;;;;;;;;;;5061948;28;20099;-63
2023/03/27 08:16:47;;;;;;;0.50;0.30;;;;;;;;;;5052375;28;20036;-63
2023/03/27 08:19:13;;;;;;;1.10;0.30;;;;;;;;;;5050265;28;20037;-63
2023/03/27 08:21:39;;;;;;;0.77;0.40;;;;;;;;;;5033243;28;20052;-64
2023/03/27 08:24:06;;;;;;;2.50;0.60;;;;;;;;;;5033769;28;20041;-63
2023/03/27 08:26:32;;;;;;;3.03;0.63;;;;;;;;;;5041763;28;20041;-64
2023/03/27 08:28:58;;;;;;;2.28;0.30;;;;;;;;;;5040214;28;20563;-63
2023/03/27 08:31:26;;;;;;;5.13;1.10;;;;;;;;;;5034626;28;20052;-63
2023/03/27 08:33:53;;;;;;;1.17;0.45;;;;;;;;;;5039135;28;20053;-63
2023/03/27 08:36:19;;;;;;;1.75;0.70;;;;;;;;;;5038726;28;20099;-63
2023/03/27 08:38:45;;;;;;;2.63;0.50;;;;;;;;;;5038558;28;20048;-63
2023/03/27 08:41:23;;;;;;;3.70;1.10;;;;;;;;;;5038023;28;20045;-63
2023/03/27 08:43:49;;;;;;;2.55;0.60;;;;;;;;;;5042093;28;20072;-63
2023/03/27 08:46:21;;;;;;;2.90;0.75;;;;;;;;;;5045432;28;20048;-63
2023/03/27 08:48:47;;;;;;;3.55;0.68;;;;;;;;;;5043091;28;20045;-63
2023/03/27 08:51:23;;;;;;;3.33;0.75;;;;;;;;;;5045193;28;20439;-63
2023/03/27 08:53:56;;;;;;;2.20;0.65;;;;;;;;;;5047235;28;20045;-63
2023/03/27 08:56:22;;;;;;;;;;;;;;;;;;5047882;28;20052;-63
2023/03/27 08:58:48;;;;;;;3.10;0.60;;;;;;;;;;5047047;28;19931;-63
2023/03/27 09:01:17;;;;;;;3.00;0.45;;;;;;;;;;5046837;28;20044;-63
2023/03/27 09:03:49;;;;;;;3.53;0.70;;;;;;;;;;5045312;28;20137;-63
2023/03/27 09:06:26;;;;;;;1.00;0.43;;;;;;;;;;5026710;28;20100;-64
2023/03/27 09:08:52;;;;;;;1.13;0.50;;;;;;;;;;5038947;28;20049;-64
2023/03/27 09:11:32;;;;;;;2.35;0.52;;;;;;;;;;5044774;28;20700;-64
2023/03/27 09:14:00;;;;;;;4.57;0.60;;;;;;;;;;5046541;28;20088;-63
2023/03/27 09:16:31;;;;;;;1.40;0.40;;;;;;;;;;5045919;28;20048;-63
2023/03/27 09:19:09;;;;;;;5.10;1.05;;;;;;;;;;5039832;28;20446;-63
2023/03/27 09:21:53;;;;;;;1.00;0.52;;;;;;;;;;5045238;28;20048;-64
2023/03/27 09:24:28;;;;;;;2.67;0.82;;;;;;;;;;5043383;28;20053;-63
2023/03/27 09:26:55;;;;;;;3.83;1.00;;;;;;;;;;5043585;28;20044;-64
2023/03/27 09:29:24;;;;;;;4.32;1.50;;;;;;;;;;5038914;28;20044;-63
2023/03/27 09:31:52;;;;;;;1.35;0.25;;;;;;;;;;5041685;28;20060;-63
2023/03/27 09:34:34;;;;;;;2.78;0.50;;;;;;;;;;5038979;28;20526;-64
2023/03/27 09:37:01;;;;;;;1.05;0.52;;;;;;;;;;5042245;28;20057;-64
2023/03/27 09:39:34;;;;;;;1.77;0.32;;;;;;;;;;5040977;28;20041;-64
2023/03/27 09:42:02;;;;;;;3.03;0.77;;;;;;;;;;5038312;28;20559;-64
2023/03/27 09:44:30;;;;;;;1.70;0.50;;;;;;;;;;5039320;28;20045;-63
2023/03/27 09:47:06;;;;;;;3.35;0.40;;;;;;;;;;5039158;28;20075;-57
2023/03/27 09:49:32;;;;;;;2.90;0.50;;;;;;;;;;5033327;28;20049;-59
2023/03/27 09:51:59;;;;;;;0.77;0.35;;;;;;;;;;5025999;28;20144;-57
2023/03/27 09:54:30;;;;;;;2.25;0.60;;;;;;;;;;5025823;28;20045;-57
2023/03/27 09:57:04;;;;;;;1.83;0.43;;;;;;;;;;5032953;28;20107;-57
2023/03/27 09:59:32;;;;;;;2.70;0.40;;;;;;;;;;5044393;28;20419;-57
2023/03/27 10:01:59;;;;;;;1.50;0.32;;;;;;;;;;5039726;28;20163;-57
2023/03/27 10:04:28;;;;;;;2.70;0.40;;;;;;;;;;5036921;28;20583;-60
2023/03/27 10:07:00;;;;;;;2.10;0.55;;;;;;;;;;5040890;28;20412;-59
2023/03/27 10:09:33;;;;;;;0.98;0.50;;;;;;;;;;5040757;28;20045;-61
2023/03/27 10:12:20;;;;;;;1.00;0.47;;;;;;;;;;5044023;28;20049;-61
2023/03/27 10:14:48;;;;;;;3.15;0.32;;;;;;;;;;5043614;28;20494;-59
2023/03/27 10:17:26;;;;;;;1.48;0.40;;;;;;;;;;5044023;28;20052;-59
2023/03/27 10:19:53;;;;;;;1.35;0.45;;;;;;;;;;5044444;28;20072;-57
2023/03/27 10:22:35;;;;;;;1.90;0.75;;;;;;;;;;5043791;28;20043;-56
2023/03/27 10:25:01;;;;;;;2.67;0.50;;;;;;;;;;5044275;28;20057;-57
2023/03/27 10:27:30;;;;;;;3.47;0.98;;;;;;;;;;5035249;28;20503;-58
2023/03/27 10:29:56;;;;;;;2.42;0.38;;;;;;;;;;5027117;28;20430;-56
2023/03/27 10:32:41;;;;;;;4.50;0.52;;;;;;;;;;5047466;28;20052;-57
2023/03/27 10:35:20;;;;;;;2.15;0.60;;;;;;;;;;5044932;28;20041;-56
2023/03/27 10:37:47;;;;;;;2.20;0.50;;;;;;;;;;5052150;28;20644;-56
2023/03/27 10:40:24;;;;;;;4.45;0.80;;;;;;;;;;5045440;28;20071;-57
2023/03/27 10:42:51;;;;;;;2.80;0.60;;;;;;;;;;5057703;28;20693;-57
2023/03/27 10:45:19;;;;;;;3.25;0.73;;;;;;;;;;5064787;28;20055;-57
2023/03/27 10:47:50;;;;;;;1.73;0.60;;;;;;;;;;5064957;28;20040;-57
2023/03/27 10:50:20;;;;;;;2.45;1.35;;;;;;;;;;5063323;28;20056;-57
2023/03/27 10:52:52;;;;;;;2.63;0.50;;;;;;;;;;5052364;28;20126;-57
2023/03/27 10:55:18;;;;;;;;;;;;;;;;;;5033920;28;20095;-56
2023/03/27 10:57:49;;;;;;;1.58;0.50;;;;;;;;;;5024066;28;20388;-57
2023/03/27 11:00:19;;;;;;;3.28;0.70;;;;;;;;;;5040807;28;20045;-57
2023/03/27 11:02:58;;;;;;;5.03;1.17;;;;;;;;;;5045457;28;20055;-56
2023/03/27 11:05:29;;;;;;;3.78;1.00;;;;;;;;;;5044157;28;20049;-57
2023/03/27 11:08:11;;;;;;;6.10;0.60;;;;;;;;;;5041921;28;20061;-59
2023/03/27 11:10:42;;;;;;;2.53;0.90;;;;;;;;;;5035693;28;20522;-67
2023/03/27 11:13:10;;;;;;;1.92;0.75;;;;;;;;;;5040453;28;20292;-60
2023/03/27 11:15:41;;;;;;;2.60;0.38;;;;;;;;;;5032480;28;20045;-58
2023/03/27 11:18:10;;;;;;;1.52;0.63;;;;;;;;;;5038336;28;20038;-58
2023/03/27 11:20:43;;;;;;;2.75;0.60;;;;;;;;;;5040527;28;20530;-59
2023/03/27 11:23:13;;;;;;;4.43;0.70;;;;;;;;;;5042428;28;20437;-58
2023/03/27 11:25:42;;;;;;;1.77;0.52;;;;;;;;;;5042629;28;20045;-58
2023/03/27 11:28:26;;;;;;;0.80;0.43;;;;;;;;;;5044676;28;20044;-58
2023/03/27 11:30:58;;;;;;;2.40;0.45;;;;;;;;;;5029598;28;20124;-60
2023/03/27 11:33:31;;;;;;;1.85;0.40;;;;;;;;;;5024544;28;20053;-59
2023/03/27 11:36:13;;;;;;;1.75;0.30;;;;;;;;;;5024760;28;20053;-59
2023/03/27 11:38:50;;;;;;;0.68;0.30;;;;;;;;;;5024436;28;20154;-60
2023/03/27 11:41:16;;;;;;;2.63;0.50;;;;;;;;;;5033034;28;20068;-58
2023/03/27 11:43:42;;;;;;;1.63;0.60;;;;;;;;;;5044178;28;20701;-58
2023/03/27 11:46:24;;;;;;;3.60;0.70;;;;;;;;;;5040823;28;20056;-59
2023/03/27 11:48:53;;;;;;;2.58;0.70;;;;;;;;;;5032534;28;20045;-58
2023/03/27 11:51:26;;;;;;;3.70;0.70;;;;;;;;;;5038791;28;20127;-59
2023/03/27 11:53:52;;;;;;;4.25;0.68;;;;;;;;;;5041434;28;20056;-58
2023/03/27 11:56:30;;;;;;;3.30;0.82;;;;;;;;;;5043470;28;20049;-58
2023/03/27 11:59:15;;;;;;;2.00;0.65;;;;;;;;;;5041763;28;20720;-58
2023/03/27 12:02:02;;;;;;;3.83;0.63;;;;;;;;;;5026154;28;20582;-60
2023/03/27 12:04:43;;;;;;;1.67;0.60;;;;;;;;;;5045585;28;20084;-58
2023/03/27 12:07:09;;;;;;;4.28;0.63;;;;;;;;;;5046952;28;20096;-58
2023/03/27 12:09:38;;;;;;;4.30;0.82;;;;;;;;;;5048326;28;20496;-58
2023/03/27 12:12:24;;;;;;;2.28;0.90;;;;;;;;;;5047792;28;20048;-59
2023/03/27 12:15:09;;;;;;;3.33;0.60;;;;;;;;;;5047637;28;20048;-58
2023/03/27 12:17:54;;;;;;;3.30;0.75;;;;;;;;;;5035722;28;20121;-58
2023/03/27 12:20:46;;;;;;;3.35;1.27;;;;;;;;;;5028730;28;20499;-57
2023/03/27 12:23:30;;;;;;;3.53;0.60;;;;;;;;;;5026199;28;20077;-58
2023/03/27 12:26:11;;;;;;;3.08;0.93;;;;;;;;;;5026864;28;20119;-58
2023/03/27 12:28:51;;;;;;;4.30;1.10;;;;;;;;;;5027312;28;20049;-58
2023/03/27 12:31:18;;;;;;;5.00;1.15;;;;;;;;;;5027906;28;20056;-60
2023/03/27 12:33:50;;;;;;;5.07;0.82;;;;;;;;;;5027722;28;20065;-60
2023/03/27 12:36:19;;;;;;;1.90;0.80;;;;;;;;;;5027395;28;20049;-59
2023/03/27 12:38:45;;;;;;;4.20;1.05;;;;;;;;;;5028018;28;20092;-57
2023/03/27 12:41:18;;;;;;;1.45;0.30;;;;;;;;;;5027655;28;20053;-57
2023/03/27 12:43:45;;;;;;;1.95;0.50;;;;;;;;;;5026765;28;20103;-57
2023/03/27 12:46:14;;;;;;;2.72;0.43;;;;;;;;;;5027372;28;20054;-58
2023/03/27 12:48:49;;;;;;;1.30;0.45;;;;;;;;;;5028017;28;20041;-60
2023/03/27 12:51:18;;;;;;;1.92;0.55;;;;;;;;;;5027031;28;20069;-58
2023/03/27 12:53:47;;;;;;;3.60;0.82;;;;;;;;;;5027343;28;20054;-58
2023/03/27 12:56:16;;;;;;;3.92;0.80;;;;;;;;;;5026706;28;20594;-57
2023/03/27 12:58:44;;;;;;;2.95;0.70;;;;;;;;;;5027875;28;20669;-58
2023/03/27 13:01:11;;;;;;;4.55;1.50;;;;;;;;;;5027679;28;20053;-58
2023/03/27 13:04:04;;;;;;;4.85;1.33;;;;;;;;;;5026838;28;20048;-60
2023/03/27 13:06:46;;;;;;;4.25;1.38;;;;;;;;;;5018335;28;20045;-57
2023/03/27 13:09:30;;;;;;;4.70;1.67;;;;;;;;;;5026987;28;20092;-57
2023/03/27 13:12:04;;;;;;;4.60;0.77;;;;;;;;;;5026322;28;20500;-60
2023/03/27 13:14:48;;;;;;;4.70;1.35;;;;;;;;;;5026861;28;20064;-60
2023/03/27 13:17:28;;;;;;;6.95;1.45;;;;;;;;;;5026610;28;20046;-58
2023/03/27 13:19:55;;;;;;;2.35;0.70;;;;;;;;;;5027397;28;20050;-58
2023/03/27 13:22:27;;;;;;;2.10;0.50;;;;;;;;;;5027479;28;20108;-57
2023/03/27 13:25:13;;;;;;;5.28;0.63;;;;;;;;;;5026333;28;20091;-57
2023/03/27 13:28:07;;;;;;;1.92;0.60;;;;;;;;;;5026953;28;20045;-57
2023/03/27 13:30:42;;;;;;;1.70;0.60;;;;;;;;;;5026847;28;20049;-56
2023/03/27 13:33:17;;;;;;;1.83;0.30;;;;;;;;;;5025740;28;20531;-56
2023/03/27 13:35:53;;;;;;;0.90;0.20;;;;;;;;;;5026726;28;20053;-57
2023/03/27 13:38:39;;;;;;;1.08;0.40;;;;;;;;;;5041807;28;20046;-57
2023/03/27 13:41:23;;;;;;;4.32;0.82;;;;;;;;;;5026309;28;20049;-57
2023/03/27 13:43:50;;;;;;;5.57;0.60;;;;;;;;;;5027350;28;20041;-59
2023/03/27 13:46:17;;;;;;;2.97;0.63;;;;;;;;;;5026088;28;20405;-61
2023/03/27 13:48:49;;;;;;;3.78;1.00;;;;;;;;;;5026538;28;20217;-60
2023/03/27 13:51:34;;;;;;;2.42;0.50;;;;;;;;;;5064401;28;20045;-59
2023/03/27 13:54:08;;;;;;;3.58;1.23;;;;;;;;;;5065382;28;20033;-59
2023/03/27 13:56:43;;;;;;;4.43;1.17;;;;;;;;;;5066339;28;20131;-60
2023/03/27 13:59:09;;;;;;;4.15;0.70;;;;;;;;;;5065754;28;20048;-60
2023/03/27 14:01:50;;;;;;;2.55;0.65;;;;;;;;;;5065437;28;20044;-59
2023/03/27 14:04:17;;;;;;;3.70;1.17;;;;;;;;;;5062273;28;20048;-59
2023/03/27 14:07:06;;;;;;;1.92;0.63;;;;;;;;;;5064253;28;20052;-61
2023/03/27 14:09:45;;;;;;;4.75;1.00;;;;;;;;;;5053193;28;20049;-59
2023/03/27 14:12:18;;;;;;;3.60;0.82;;;;;;;;;;5052274;28;20848;-60
2023/03/27 14:14:45;;;;;;;6.55;1.95;;;;;;;;;;5065277;28;20590;-60
2023/03/27 14:17:29;;;;;;;8.60;1.15;;;;;;;;;;5056996;28;20073;-61
2023/03/27 14:19:58;;;;;;;4.93;1.40;;;;;;;;;;5045269;28;20040;-61
2023/03/27 14:22:26;;;;;;;2.58;0.73;;;;;;;;;;5060747;28;20051;-61
2023/03/27 14:24:53;;;;;;;3.75;0.63;;;;;;;;;;5065875;28;20084;-60
2023/03/27 14:27:21;;;;;;;3.00;0.55;;;;;;;;;;5065368;28;20046;-60
2023/03/27 14:29:49;;;;;;;5.93;1.20;;;;;;;;;;5063798;28;20048;-62
2023/03/27 14:32:19;;;;;;;8.90;1.55;;;;;;;;;;5045671;28;20110;-62
2023/03/27 14:34:52;;;;;;;4.65;0.77;;;;;;;;;;5045044;28;20578;-62
2023/03/27 14:37:27;;;;;;;6.32;1.20;;;;;;;;;;5046383;28;20048;-61
2023/03/27 14:39:54;;;;;;;3.92;0.73;;;;;;;;;;5045442;28;20049;-62
2023/03/27 14:42:20;;;;;;;4.32;0.75;;;;;;;;;;5052853;28;20129;-62
2023/03/27 14:44:46;;;;;;;5.53;1.33;;;;;;;;;;5065262;28;20044;-61
2023/03/27 14:47:14;;;;;;;3.65;0.68;;;;;;;;;;5065020;28;20048;-60
2023/03/27 14:49:46;;;;;;;3.88;1.00;;;;;;;;;;5064817;28;20143;-60
2023/03/27 14:52:20;;;;;;;1.58;0.52;;;;;;;;;;5065206;28;20054;-61
2023/03/27 14:54:46;;;;;;;5.53;1.08;;;;;;;;;;5065748;28;20083;-60
2023/03/27 14:57:13;;;;;;;3.42;0.82;;;;;;;;;;5064179;28;20507;-61
2023/03/27 14:59:41;;;;;;;1.85;0.57;;;;;;;;;;5064989;28;20513;-62